sensor_id;sensor_type;location;lat;lon;timestamp;pressure;altitude;pressure_sealevel;temperature;humidity
59608;BME280;45426;44.726;10.390;2023-08-08T00:00:44;100532.53;;;19.80;100.00
59608;BME280;45426;44.726;10.390;2023-08-08T00:03:15;100535.28;;;19.84;100.00
59608;BME280;45426;44.726;10.390;2023-08-08T00:05:48;100529.00;;;19.87;100.00
59608;BME280;45426;44.726;10.390;2023-08-08T00:08:19;100528.59;;;19.81;100.00
59608;BME280;45426;44.726;10.390;2023-08-08T00:10:49;100528.19;;;20.04;100.00
59608;BME280;45426;44.726;10.390;2023-08-08T00:13:15;100539.22;;;19.97;100.00
59608;BME280;45426;44.726;10.390;2023-08-08T00:15:46;100535.31;;;19.98;100.00
59608;BME280;45426;44.726;10.390;2023-08-08T00:18:11;100532.16;;;19.89;100.00
59608;BME280;45426;44.726;10.390;2023-08-08T00:20:37;100535.69;;;20.07;100.00
59608;BME280;45426;44.726;10.390;2023-08-08T00:23:05;100527.81;;;20.02;100.00
59608;BME280;45426;44.726;10.390;2023-08-08T00:25:48;100526.63;;;20.14;100.00
59608;BME280;45426;44.726;10.390;2023-08-08T00:28:18;100532.94;;;19.96;100.00
59608;BME280;45426;44.726;10.390;2023-08-08T00:30:49;100530.19;;;20.04;100.00
59608;BME280;45426;44.726;10.390;2023-08-08T00:33:15;100527.41;;;19.93;100.00
59608;BME280;45426;44.726;10.390;2023-08-08T00:35:48;100530.56;;;19.77;100.00
59608;BME280;45426;44.726;10.390;2023-08-08T00:38:24;100529.59;;;19.08;100.00
59608;BME280;45426;44.726;10.390;2023-08-08T00:40:54;100526.50;;;19.35;100.00
59608;BME280;45426;44.726;10.390;2023-08-08T00:43:33;100529.59;;;19.08;100.00
59608;BME280;45426;44.726;10.390;2023-08-08T00:46:26;100525.75;;;19.38;100.00
59608;BME280;45426;44.726;10.390;2023-08-08T00:49:06;100528.09;;;19.32;100.00
59608;BME280;45426;44.726;10.390;2023-08-08T00:51:47;100538.34;;;19.46;100.00
59608;BME280;45426;44.726;10.390;2023-08-08T00:54:16;100534.03;;;19.45;100.00
59608;BME280;45426;44.726;10.390;2023-08-08T00:56:54;100531.38;;;19.88;100.00
59608;BME280;45426;44.726;10.390;2023-08-08T00:59:27;100536.41;;;19.61;100.00
59608;BME280;45426;44.726;10.390;2023-08-08T01:01:58;100526.56;;;19.64;100.00
59608;BME280;45426;44.726;10.390;2023-08-08T01:04:30;100529.69;;;19.40;100.00
59608;BME280;45426;44.726;10.390;2023-08-08T01:07:29;100525.75;;;19.42;100.00
59608;BME280;45426;44.726;10.390;2023-08-08T01:10:08;100512.38;;;19.44;100.00
59608;BME280;45426;44.726;10.390;2023-08-08T01:12:44;100513.94;;;19.41;100.00
59608;BME280;45426;44.726;10.390;2023-08-08T01:15:19;100517.81;;;19.18;100.00
59608;BME280;45426;44.726;10.390;2023-08-08T01:17:48;100514.31;;;19.29;100.00
59608;BME280;45426;44.726;10.390;2023-08-08T01:20:16;100507.22;;;19.28;100.00
59608;BME280;45426;44.726;10.390;2023-08-08T01:22:55;100499.34;;;19.30;100.00
59608;BME280;45426;44.726;10.390;2023-08-08T01:25:26;100497.38;;;19.34;100.00
59608;BME280;45426;44.726;10.390;2023-08-08T01:27:54;100505.25;;;19.28;100.00
59608;BME280;45426;44.726;10.390;2023-08-08T01:30:24;100492.66;;;19.31;100.00
59608;BME280;45426;44.726;10.390;2023-08-08T01:32:57;100497.41;;;19.41;100.00
59608;BME280;45426;44.726;10.390;2023-08-08T01:35:34;100515.19;;;19.72;100.00
59608;BME280;45426;44.726;10.390;2023-08-08T01:38:28;100517.50;;;19.56;100.00
59608;BME280;45426;44.726;10.390;2023-08-08T01:40:59;100519.88;;;19.68;100.00
59608;BME280;45426;44.726;10.390;2023-08-08T01:43:28;100520.53;;;19.11;100.00
59608;BME280;45426;44.726;10.390;2023-08-08T01:46:08;100518.91;;;18.96;100.00
59608;BME280;45426;44.726;10.390;2023-08-08T01:48:49;100512.16;;;18.83;100.00
59608;BME280;45426;44.726;10.390;2023-08-08T01:51:22;100513.09;;;19.19;100.00
59608;BME280;45426;44.726;10.390;2023-08-08T01:53:58;100520.97;;;19.24;100.00
59608;BME280;45426;44.726;10.390;2023-08-08T01:56:36;100529.63;;;19.26;100.00
59608;BME280;45426;44.726;10.390;2023-08-08T01:59:15;100529.59;;;19.08;100.00
59608;BME280;45426;44.726;10.390;2023-08-08T02:02:00;100534.34;;;19.22;100.00
59608;BME280;45426;44.726;10.390;2023-08-08T02:04:29;100533.16;;;19.19;100.00
59608;BME280;45426;44.726;10.390;2023-08-08T02:10:23;100534.22;;;18.86;100.00
59608;BME280;45426;44.726;10.390;2023-08-08T02:13:01;100533.44;;;18.86;100.00
59608;BME280;45426;44.726;10.390;2023-08-08T02:15:37;100542.13;;;19.02;100.00
59608;BME280;45426;44.726;10.390;2023-08-08T02:18:13;100548.56;;;19.35;100.00
59608;BME280;45426;44.726;10.390;2023-08-08T02:20:40;100548.41;;;18.95;100.00
59608;BME280;45426;44.726;10.390;2023-08-08T02:23:11;100553.09;;;18.88;100.00
59608;BME280;45426;44.726;10.390;2023-08-08T02:25:39;100549.16;;;18.92;100.00
59608;BME280;45426;44.726;10.390;2023-08-08T02:28:10;100557.56;;;19.17;100.00
59608;BME280;45426;44.726;10.390;2023-08-08T02:30:41;100553.22;;;19.16;100.00
59608;BME280;45426;44.726;10.390;2023-08-08T02:33:17;100549.16;;;18.92;100.00
59608;BME280;45426;44.726;10.390;2023-08-08T02:35:48;100547.63;;;19.02;100.00
59608;BME280;45426;44.726;10.390;2023-08-08T02:38:26;100552.38;;;19.05;100.00
59608;BME280;45426;44.726;10.390;2023-08-08T02:40:59;100555.50;;;19.04;100.00
59608;BME280;45426;44.726;10.390;2023-08-08T02:43:32;100559.66;;;18.76;100.00
59608;BME280;45426;44.726;10.390;2023-08-08T02:45:57;100555.31;;;18.68;100.00
59608;BME280;45426;44.726;10.390;2023-08-08T02:48:23;100546.81;;;18.94;100.00
59608;BME280;45426;44.726;10.390;2023-08-08T02:50:58;100542.88;;;18.88;100.00
59608;BME280;45426;44.726;10.390;2023-08-08T02:53:26;100548.22;;;18.63;100.00
59608;BME280;45426;44.726;10.390;2023-08-08T02:55:54;100551.28;;;18.51;100.00
59608;BME280;45426;44.726;10.390;2023-08-08T02:58:22;100549.69;;;18.46;100.00
59608;BME280;45426;44.726;10.390;2023-08-08T03:00:48;100553.59;;;18.45;100.00
59608;BME280;45426;44.726;10.390;2023-08-08T03:03:21;100557.06;;;18.35;100.00
59608;BME280;45426;44.726;10.390;2023-08-08T03:05:51;100564.09;;;18.29;100.00
59608;BME280;45426;44.726;10.390;2023-08-08T03:08:19;100564.84;;;18.22;100.00
59608;BME280;45426;44.726;10.390;2023-08-08T03:10:47;100569.94;;;18.27;100.00
59608;BME280;45426;44.726;10.390;2023-08-08T03:13:23;100561.41;;;18.39;100.00
59608;BME280;45426;44.726;10.390;2023-08-08T03:15:51;100557.91;;;17.94;100.00
59608;BME280;45426;44.726;10.390;2023-08-08T03:18:17;100562.47;;;18.20;100.00
59608;BME280;45426;44.726;10.390;2023-08-08T03:20:57;100549.38;;;18.07;100.00
59608;BME280;45426;44.726;10.390;2023-08-08T03:23:23;100548.00;;;17.86;100.00
59608;BME280;45426;44.726;10.390;2023-08-08T03:25:49;100542.06;;;17.84;100.00
59608;BME280;45426;44.726;10.390;2023-08-08T03:28:18;100540.88;;;17.81;100.00
59608;BME280;45426;44.726;10.390;2023-08-08T03:31:03;100544.41;;;17.82;100.00
59608;BME280;45426;44.726;10.390;2023-08-08T03:33:37;100549.31;;;17.96;100.00
59608;BME280;45426;44.726;10.390;2023-08-08T03:36:12;100551.94;;;18.33;100.00
59608;BME280;45426;44.726;10.390;2023-08-08T03:38:40;100555.72;;;18.11;100.00
59608;BME280;45426;44.726;10.390;2023-08-08T03:41:25;100555.75;;;18.18;100.00
59608;BME280;45426;44.726;10.390;2023-08-08T03:43:53;100563.16;;;18.10;100.00
59608;BME280;45426;44.726;10.390;2023-08-08T03:46:24;100565.75;;;17.92;100.00
59608;BME280;45426;44.726;10.390;2023-08-08T03:49:00;100549.16;;;18.26;100.00
59608;BME280;45426;44.726;10.390;2023-08-08T03:51:31;100553.97;;;17.95;100.00
59608;BME280;45426;44.726;10.390;2023-08-08T03:54:01;100559.66;;;18.13;100.00
59608;BME280;45426;44.726;10.390;2023-08-08T03:56:27;100568.63;;;18.07;100.00
59608;BME280;45426;44.726;10.390;2023-08-08T03:59:08;100572.13;;;18.03;100.00
59608;BME280;45426;44.726;10.390;2023-08-08T04:01:43;100567.59;;;17.81;100.00
59608;BME280;45426;44.726;10.390;2023-08-08T04:04:11;100569.16;;;17.82;100.00
59608;BME280;45426;44.726;10.390;2023-08-08T04:06:54;100573.25;;;17.61;100.00
59608;BME280;45426;44.726;10.390;2023-08-08T04:09:20;100586.50;;;17.52;100.00
59608;BME280;45426;44.726;10.390;2023-08-08T04:11:46;100579.56;;;17.65;100.00
59608;BME280;45426;44.726;10.390;2023-08-08T04:14:14;100580.66;;;17.91;100.00
59608;BME280;45426;44.726;10.390;2023-08-08T04:16:52;100580.78;;;18.06;100.00
59608;BME280;45426;44.726;10.390;2023-08-08T04:19:40;100586.31;;;18.09;100.00
59608;BME280;45426;44.726;10.390;2023-08-08T04:22:21;100572.06;;;17.96;100.00
59608;BME280;45426;44.726;10.390;2023-08-08T04:24:52;100569.47;;;18.11;100.00
59608;BME280;45426;44.726;10.390;2023-08-08T04:27:17;100563.16;;;17.73;100.00
59608;BME280;45426;44.726;10.390;2023-08-08T04:29:45;100561.56;;;17.68;100.00
59608;BME280;45426;44.726;10.390;2023-08-08T04:32:18;100564.69;;;17.66;100.00
59608;BME280;45426;44.726;10.390;2023-08-08T04:35:00;100575.81;;;17.81;100.00
59608;BME280;45426;44.726;10.390;2023-08-08T04:37:37;100578.53;;;17.77;100.00
59608;BME280;45426;44.726;10.390;2023-08-08T04:40:08;100576.00;;;17.99;100.00
59608;BME280;45426;44.726;10.390;2023-08-08T04:42:41;100579.53;;;17.96;100.00
59608;BME280;45426;44.726;10.390;2023-08-08T04:45:17;100589.72;;;17.95;100.00
59608;BME280;45426;44.726;10.390;2023-08-08T04:47:46;100599.69;;;18.11;100.00
59608;BME280;45426;44.726;10.390;2023-08-08T04:50:14;100600.72;;;17.95;100.00
59608;BME280;45426;44.726;10.390;2023-08-08T04:52:42;100597.72;;;18.11;100.00
59608;BME280;45426;44.726;10.390;2023-08-08T04:55:30;100604.34;;;18.03;100.00
59608;BME280;45426;44.726;10.390;2023-08-08T04:58:02;100594.41;;;17.91;100.00
59608;BME280;45426;44.726;10.390;2023-08-08T05:00:35;100596.56;;;17.41;100.00
59608;BME280;45426;44.726;10.390;2023-08-08T05:03:30;100587.03;;;17.65;100.00
59608;BME280;45426;44.726;10.390;2023-08-08T05:06:15;100585.84;;;17.62;100.00
59608;BME280;45426;44.726;10.390;2023-08-08T05:08:54;100586.78;;;17.77;100.00
59608;BME280;45426;44.726;10.390;2023-08-08T05:11:35;100586.22;;;17.98;100.00
59608;BME280;45426;44.726;10.390;2023-08-08T05:14:05;100585.41;;;17.94;100.00
59608;BME280;45426;44.726;10.390;2023-08-08T05:16:40;100596.81;;;17.96;100.00
59608;BME280;45426;44.726;10.390;2023-08-08T05:19:11;100601.34;;;18.22;100.00
59608;BME280;45426;44.726;10.390;2023-08-08T05:21:41;100606.94;;;18.30;100.00
59608;BME280;45426;44.726;10.390;2023-08-08T05:24:26;100608.00;;;18.21;100.00
59608;BME280;45426;44.726;10.390;2023-08-08T05:27:20;100608.19;;;18.39;100.00
59608;BME280;45426;44.726;10.390;2023-08-08T05:29:51;100618.72;;;18.30;100.00
59608;BME280;45426;44.726;10.390;2023-08-08T05:32:19;100607.59;;;18.68;100.00
59608;BME280;45426;44.726;10.390;2023-08-08T05:34:49;100613.69;;;18.95;100.00
59608;BME280;45426;44.726;10.390;2023-08-08T05:37:26;100618.47;;;19.05;100.00
59608;BME280;45426;44.726;10.390;2023-08-08T05:39:54;100623.22;;;19.08;100.00
59608;BME280;45426;44.726;10.390;2023-08-08T05:42:19;100627.47;;;18.98;100.00
59608;BME280;45426;44.726;10.390;2023-08-08T05:47:25;100632.78;;;19.43;100.00
59608;BME280;45426;44.726;10.390;2023-08-08T05:49:55;100634.84;;;19.61;100.00
59608;BME280;45426;44.726;10.390;2023-08-08T05:52:23;100630.63;;;19.92;100.00
59608;BME280;45426;44.726;10.390;2023-08-08T05:54:50;100634.19;;;20.14;100.00
59608;BME280;45426;44.726;10.390;2023-08-08T05:57:18;100638.13;;;20.06;100.00
59608;BME280;45426;44.726;10.390;2023-08-08T05:59:49;100630.66;;;20.28;100.00
59608;BME280;45426;44.726;10.390;2023-08-08T06:02:18;100639.31;;;20.51;100.00
59608;BME280;45426;44.726;10.390;2023-08-08T06:04:47;100646.03;;;20.54;100.00
59608;BME280;45426;44.726;10.390;2023-08-08T06:07:21;100659.81;;;20.93;100.00
59608;BME280;45426;44.726;10.390;2023-08-08T06:09:46;100658.66;;;20.84;100.00
59608;BME280;45426;44.726;10.390;2023-08-08T06:12:17;100657.34;;;21.24;100.00
59608;BME280;45426;44.726;10.390;2023-08-08T06:14:55;100655.63;;;21.74;100.00
59608;BME280;45426;44.726;10.390;2023-08-08T06:17:33;100662.66;;;21.85;100.00
59608;BME280;45426;44.726;10.390;2023-08-08T06:20:03;100659.31;;;21.38;100.00
59608;BME280;45426;44.726;10.390;2023-08-08T06:22:40;100660.44;;;21.59;100.00
59608;BME280;45426;44.726;10.390;2023-08-08T06:25:14;100653.25;;;21.72;100.00
59608;BME280;45426;44.726;10.390;2023-08-08T06:27:40;100653.53;;;21.92;100.00
59608;BME280;45426;44.726;10.390;2023-08-08T06:30:10;100655.41;;;22.06;100.00
59608;BME280;45426;44.726;10.390;2023-08-08T06:32:46;100654.53;;;22.16;100.00
59608;BME280;45426;44.726;10.390;2023-08-08T06:35:19;100648.22;;;22.19;100.00
59608;BME280;45426;44.726;10.390;2023-08-08T06:37:44;100662.66;;;22.48;100.00
59608;BME280;45426;44.726;10.390;2023-08-08T06:40:10;100660.34;;;22.85;100.00
59608;BME280;45426;44.726;10.390;2023-08-08T06:42:46;100666.88;;;23.05;100.00
59608;BME280;45426;44.726;10.390;2023-08-08T06:45:18;100667.25;;;23.45;100.00
59608;BME280;45426;44.726;10.390;2023-08-08T06:47:53;100666.94;;;23.36;100.00
59608;BME280;45426;44.726;10.390;2023-08-08T06:50:39;100659.28;;;23.78;100.00
59608;BME280;45426;44.726;10.390;2023-08-08T06:53:04;100662.72;;;23.90;100.00
59608;BME280;45426;44.726;10.390;2023-08-08T06:55:43;100660.03;;;23.82;100.00
59608;BME280;45426;44.726;10.390;2023-08-08T06:58:11;100665.53;;;24.88;100.00
59608;BME280;45426;44.726;10.390;2023-08-08T07:00:44;100660.41;;;25.06;100.00
59608;BME280;45426;44.726;10.390;2023-08-08T07:03:14;100671.69;;;25.19;100.00
59608;BME280;45426;44.726;10.390;2023-08-08T07:05:42;100681.94;;;26.84;100.00
59608;BME280;45426;44.726;10.390;2023-08-08T07:08:07;100681.84;;;30.94;82.21
59608;BME280;45426;44.726;10.390;2023-08-08T07:10:35;100678.38;;;30.62;78.30
59608;BME280;45426;44.726;10.390;2023-08-08T07:13:10;100668.66;;;31.65;74.57
59608;BME280;45426;44.726;10.390;2023-08-08T07:15:50;100664.63;;;32.33;74.45
59608;BME280;45426;44.726;10.390;2023-08-08T07:18:18;100668.66;;;31.98;70.62
59608;BME280;45426;44.726;10.390;2023-08-08T07:20:47;100665.56;;;33.17;65.65
59608;BME280;45426;44.726;10.390;2023-08-08T07:23:21;100661.91;;;33.91;65.52
59608;BME280;45426;44.726;10.390;2023-08-08T07:25:47;100669.16;;;27.84;79.53
59608;BME280;45426;44.726;10.390;2023-08-08T07:28:30;100675.03;;;27.35;91.89
59608;BME280;45426;44.726;10.390;2023-08-08T07:31:28;100666.84;;;31.34;72.17
59608;BME280;45426;44.726;10.390;2023-08-08T07:33:56;100678.56;;;28.29;89.57
59608;BME280;45426;44.726;10.390;2023-08-08T07:36:25;100670.28;;;35.03;67.77
59608;BME280;45426;44.726;10.390;2023-08-08T07:39:20;100679.94;;;27.98;76.01
59608;BME280;45426;44.726;10.390;2023-08-08T07:44:39;100669.91;;;28.49;97.34
59608;BME280;45426;44.726;10.390;2023-08-08T07:47:15;100684.78;;;27.68;94.31
59608;BME280;45426;44.726;10.390;2023-08-08T07:50:11;100666.63;;;33.79;70.50
59608;BME280;45426;44.726;10.390;2023-08-08T07:53:03;100662.06;;;34.02;65.26
59608;BME280;45426;44.726;10.390;2023-08-08T07:55:53;100664.97;;;37.48;58.96
59608;BME280;45426;44.726;10.390;2023-08-08T08:01:52;100671.97;;;33.47;64.00
59608;BME280;45426;44.726;10.390;2023-08-08T08:04:40;100670.81;;;35.59;60.56
59608;BME280;45426;44.726;10.390;2023-08-08T08:07:48;100668.56;;;32.26;66.38
59608;BME280;45426;44.726;10.390;2023-08-08T08:10:43;100681.19;;;30.53;69.14
59608;BME280;45426;44.726;10.390;2023-08-08T08:13:20;100680.38;;;30.52;71.13
59608;BME280;45426;44.726;10.390;2023-08-08T08:16:03;100673.34;;;30.38;74.83
59608;BME280;45426;44.726;10.390;2023-08-08T08:19:14;100682.41;;;30.11;80.77
59608;BME280;45426;44.726;10.390;2023-08-08T08:21:50;100676.09;;;28.91;87.28
59608;BME280;45426;44.726;10.390;2023-08-08T08:24:29;100678.19;;;29.00;91.48
59608;BME280;45426;44.726;10.390;2023-08-08T08:27:07;100670.94;;;28.68;86.61
59608;BME280;45426;44.726;10.390;2023-08-08T08:29:43;100665.47;;;28.38;100.00
59608;BME280;45426;44.726;10.390;2023-08-08T08:32:28;100668.78;;;29.29;98.39
59608;BME280;45426;44.726;10.390;2023-08-08T08:35:23;100672.13;;;30.49;87.97
59608;BME280;45426;44.726;10.390;2023-08-08T08:38:08;100669.69;;;29.79;91.08
59608;BME280;45426;44.726;10.390;2023-08-08T08:40:43;100665.03;;;30.26;88.33
59608;BME280;45426;44.726;10.390;2023-08-08T08:43:15;100674.84;;;30.21;91.92
59608;BME280;45426;44.726;10.390;2023-08-08T08:45:47;100667.41;;;29.55;94.39
59608;BME280;45426;44.726;10.390;2023-08-08T08:48:43;100668.47;;;29.80;100.00
59608;BME280;45426;44.726;10.390;2023-08-08T08:51:27;100661.94;;;29.83;100.00
59608;BME280;45426;44.726;10.390;2023-08-08T08:56:49;100668.38;;;29.39;100.00
59608;BME280;45426;44.726;10.390;2023-08-08T08:59:21;100669.50;;;28.85;100.00
59608;BME280;45426;44.726;10.390;2023-08-08T09:01:46;100664.50;;;28.80;100.00
59608;BME280;45426;44.726;10.390;2023-08-08T09:04:25;100665.16;;;28.36;100.00
59608;BME280;45426;44.726;10.390;2023-08-08T09:07:01;100660.16;;;29.45;100.00
59608;BME280;45426;44.726;10.390;2023-08-08T09:09:31;100660.56;;;29.34;100.00
59608;BME280;45426;44.726;10.390;2023-08-08T09:12:08;100655.66;;;28.81;100.00
59608;BME280;45426;44.726;10.390;2023-08-08T09:14:57;100662.91;;;28.31;94.00
59608;BME280;45426;44.726;10.390;2023-08-08T09:17:34;100652.59;;;28.41;95.13
59608;BME280;45426;44.726;10.390;2023-08-08T09:20:15;100657.63;;;28.59;93.82
59608;BME280;45426;44.726;10.390;2023-08-08T09:22:44;100652.78;;;28.72;91.56
59608;BME280;45426;44.726;10.390;2023-08-08T09:25:25;100663.47;;;28.87;93.36
59608;BME280;45426;44.726;10.390;2023-08-08T09:28:04;100653.25;;;28.93;94.72
59608;BME280;45426;44.726;10.390;2023-08-08T09:30:43;100657.81;;;29.43;89.54
59608;BME280;45426;44.726;10.390;2023-08-08T09:33:21;100656.03;;;29.59;93.19
59608;BME280;45426;44.726;10.390;2023-08-08T09:36:03;100647.03;;;29.11;100.00
59608;BME280;45426;44.726;10.390;2023-08-08T09:38:31;100649.88;;;29.42;94.63
59608;BME280;45426;44.726;10.390;2023-08-08T09:41:10;100645.47;;;29.54;92.70
59608;BME280;45426;44.726;10.390;2023-08-08T09:44:03;100649.75;;;28.79;95.14
59608;BME280;45426;44.726;10.390;2023-08-08T09:46:50;100641.59;;;29.29;89.75
59608;BME280;45426;44.726;10.390;2023-08-08T09:49:39;100638.59;;;29.23;93.14
59608;BME280;45426;44.726;10.390;2023-08-08T09:52:23;100639.56;;;29.30;91.33
59608;BME280;45426;44.726;10.390;2023-08-08T09:54:57;100643.06;;;29.21;87.08
59608;BME280;45426;44.726;10.390;2023-08-08T09:57:34;100637.91;;;29.41;88.13
59608;BME280;45426;44.726;10.390;2023-08-08T10:00:06;100640.25;;;29.43;98.84
59608;BME280;45426;44.726;10.390;2023-08-08T10:02:55;100633.47;;;29.53;92.28
59608;BME280;45426;44.726;10.390;2023-08-08T10:05:28;100634.34;;;28.97;95.86
59608;BME280;45426;44.726;10.390;2023-08-08T10:11:01;100641.19;;;29.71;77.19
59608;BME280;45426;44.726;10.390;2023-08-08T10:13:32;100629.53;;;29.41;79.12
59608;BME280;45426;44.726;10.390;2023-08-08T10:16:10;100627.31;;;29.68;87.56
59608;BME280;45426;44.726;10.390;2023-08-08T10:18:54;100625.31;;;30.09;87.91
59608;BME280;45426;44.726;10.390;2023-08-08T10:21:26;100627.63;;;30.01;93.98
59608;BME280;45426;44.726;10.390;2023-08-08T10:24:32;100622.34;;;29.72;90.37
59608;BME280;45426;44.726;10.390;2023-08-08T10:27:04;100610.88;;;30.29;90.54
59608;BME280;45426;44.726;10.390;2023-08-08T10:29:38;100615.66;;;30.00;88.55
59608;BME280;45426;44.726;10.390;2023-08-08T10:32:26;100624.34;;;30.43;88.43
59608;BME280;45426;44.726;10.390;2023-08-08T10:35:02;100621.41;;;29.66;94.30
59608;BME280;45426;44.726;10.390;2023-08-08T10:37:38;100622.41;;;29.81;93.42
59608;BME280;45426;44.726;10.390;2023-08-08T10:40:18;100615.22;;;29.71;89.84
59608;BME280;45426;44.726;10.390;2023-08-08T10:42:54;100608.88;;;29.79;79.81
59608;BME280;45426;44.726;10.390;2023-08-08T10:45:32;100614.50;;;29.89;84.11
59608;BME280;45426;44.726;10.390;2023-08-08T10:48:21;100606.94;;;29.67;80.83
59608;BME280;45426;44.726;10.390;2023-08-08T10:50:57;100617.25;;;29.70;80.78
59608;BME280;45426;44.726;10.390;2023-08-08T10:53:40;100611.84;;;29.76;86.48
59608;BME280;45426;44.726;10.390;2023-08-08T10:56:17;100605.59;;;30.31;87.06
59608;BME280;45426;44.726;10.390;2023-08-08T10:59:13;100606.63;;;29.65;75.94
59608;BME280;45426;44.726;10.390;2023-08-08T11:01:49;100612.72;;;29.41;83.13
59608;BME280;45426;44.726;10.390;2023-08-08T11:04:26;100609.03;;;29.85;81.06
59608;BME280;45426;44.726;10.390;2023-08-08T11:06:58;100596.72;;;29.73;79.01
59608;BME280;45426;44.726;10.390;2023-08-08T11:09:59;100606.44;;;30.00;80.29
59608;BME280;45426;44.726;10.390;2023-08-08T11:12:25;100592.72;;;29.21;76.71
59608;BME280;45426;44.726;10.390;2023-08-08T11:14:54;100588.44;;;28.50;74.84
59608;BME280;45426;44.726;10.390;2023-08-08T11:17:25;100591.78;;;29.87;78.60
59608;BME280;45426;44.726;10.390;2023-08-08T11:20:12;100583.22;;;30.40;82.11
59608;BME280;45426;44.726;10.390;2023-08-08T11:23:03;100586.47;;;30.75;82.81
59608;BME280;45426;44.726;10.390;2023-08-08T11:25:31;100577.41;;;30.16;72.60
59608;BME280;45426;44.726;10.390;2023-08-08T11:28:06;100573.25;;;30.48;77.72
59608;BME280;45426;44.726;10.390;2023-08-08T11:30:36;100580.88;;;30.66;81.29
59608;BME280;45426;44.726;10.390;2023-08-08T11:33:07;100576.97;;;30.64;79.86
59608;BME280;45426;44.726;10.390;2023-08-08T11:35:52;100568.09;;;30.47;77.48
59608;BME280;45426;44.726;10.390;2023-08-08T11:38:21;100560.31;;;30.32;73.97
59608;BME280;45426;44.726;10.390;2023-08-08T11:40:47;100566.53;;;30.36;76.38
59608;BME280;45426;44.726;10.390;2023-08-08T11:43:23;100563.31;;;29.79;74.97
59608;BME280;45426;44.726;10.390;2023-08-08T11:45:55;100557.78;;;30.07;73.15
59608;BME280;45426;44.726;10.390;2023-08-08T11:48:24;100550.72;;;29.43;71.37
59608;BME280;45426;44.726;10.390;2023-08-08T11:50:55;100556.38;;;30.20;73.44
59608;BME280;45426;44.726;10.390;2023-08-08T11:53:24;100551.84;;;29.95;76.35
59608;BME280;45426;44.726;10.390;2023-08-08T11:55:54;100549.06;;;30.23;70.42
59608;BME280;45426;44.726;10.390;2023-08-08T11:58:26;100549.69;;;30.18;69.33
59608;BME280;45426;44.726;10.390;2023-08-08T12:00:56;100550.66;;;30.33;72.62
59608;BME280;45426;44.726;10.390;2023-08-08T12:03:28;100555.50;;;30.61;71.28
59608;BME280;45426;44.726;10.390;2023-08-08T12:06:36;100549.44;;;30.34;67.44
59608;BME280;45426;44.726;10.390;2023-08-08T12:09:21;100542.69;;;29.01;65.52
59608;BME280;45426;44.726;10.390;2023-08-08T12:12:08;100529.44;;;29.55;67.62
59608;BME280;45426;44.726;10.390;2023-08-08T12:14:42;100535.38;;;30.25;67.28
59608;BME280;45426;44.726;10.390;2023-08-08T12:17:20;100534.88;;;29.49;63.79
59608;BME280;45426;44.726;10.390;2023-08-08T12:20:16;100527.69;;;29.39;68.06
59608;BME280;45426;44.726;10.390;2023-08-08T12:22:41;100527.94;;;29.22;66.04
59608;BME280;45426;44.726;10.390;2023-08-08T12:25:07;100531.88;;;29.75;63.79
59608;BME280;45426;44.726;10.390;2023-08-08T12:27:33;100527.09;;;29.53;63.80
59608;BME280;45426;44.726;10.390;2023-08-08T13:05:27;100505.81;;;30.61;62.32
59608;BME280;45426;44.726;10.390;2023-08-08T13:11:58;100495.47;;;30.76;60.87
59608;BME280;45426;44.726;10.390;2023-08-08T13:25:46;100494.13;;;30.63;65.35
59608;BME280;45426;44.726;10.390;2023-08-08T13:32:19;100495.22;;;30.47;62.83
59608;BME280;45426;44.726;10.390;2023-08-08T13:35:09;100491.19;;;30.48;64.99
59608;BME280;45426;44.726;10.390;2023-08-08T13:41:29;100485.56;;;30.48;66.53
59608;BME280;45426;44.726;10.390;2023-08-08T13:44:05;100495.22;;;30.28;64.69
59608;BME280;45426;44.726;10.390;2023-08-08T13:50:31;100479.03;;;30.60;67.75
59608;BME280;45426;44.726;10.390;2023-08-08T13:53:22;100481.22;;;30.19;64.17
59608;BME280;45426;44.726;10.390;2023-08-08T13:55:48;100474.00;;;30.73;66.70
59608;BME280;45426;44.726;10.390;2023-08-08T13:58:19;100474.47;;;30.90;66.84
59608;BME280;45426;44.726;10.390;2023-08-08T14:00:47;100473.63;;;30.90;64.29
59608;BME280;45426;44.726;10.390;2023-08-08T14:13:03;100467.16;;;30.65;65.71
59608;BME280;45426;44.726;10.390;2023-08-08T14:15:29;100468.28;;;30.22;62.73
59608;BME280;45426;44.726;10.390;2023-08-08T14:17:54;100463.44;;;30.59;64.97
59608;BME280;45426;44.726;10.390;2023-08-08T14:20:22;100443.00;;;30.77;65.68
59608;BME280;45426;44.726;10.390;2023-08-08T14:23:04;100457.06;;;30.31;69.25
59608;BME280;45426;44.726;10.390;2023-08-08T14:28:54;100449.22;;;30.81;64.44
59608;BME280;45426;44.726;10.390;2023-08-08T14:31:31;100453.25;;;30.80;64.32
59608;BME280;45426;44.726;10.390;2023-08-08T14:34:34;100454.44;;;30.09;61.87
59608;BME280;45426;44.726;10.390;2023-08-08T14:37:16;100463.47;;;29.76;62.48
59608;BME280;45426;44.726;10.390;2023-08-08T14:39:54;100461.75;;;29.88;61.98
59608;BME280;45426;44.726;10.390;2023-08-08T14:42:51;100448.34;;;30.56;65.49
59608;BME280;45426;44.726;10.390;2023-08-08T14:45:19;100454.00;;;30.38;64.88
59608;BME280;45426;44.726;10.390;2023-08-08T14:47:55;100450.06;;;30.45;64.43
59608;BME280;45426;44.726;10.390;2023-08-08T14:50:25;100445.72;;;30.25;64.39